createdAt,value
2017-10-12T00:00:38.874Z,1008.57
2017-10-12T00:01:47.707Z,1008.49
2017-10-12T00:02:56.546Z,1008.53
2017-10-12T00:04:05.379Z,1008.47
2017-10-12T00:05:14.216Z,1008.49
2017-10-12T00:06:23.060Z,1008.53
2017-10-12T00:07:31.887Z,1008.54
2017-10-12T00:08:40.722Z,1008.52
2017-10-12T00:09:49.554Z,1008.52
2017-10-12T00:10:58.387Z,1008.54
2017-10-12T00:12:07.219Z,1008.5
2017-10-12T00:13:16.057Z,1008.47
2017-10-12T00:14:24.888Z,1008.48
2017-10-12T00:15:33.722Z,1008.58
2017-10-12T00:16:42.559Z,1008.46
2017-10-12T00:17:51.395Z,1008.41
2017-10-12T00:19:00.235Z,1008.4
2017-10-12T00:20:09.076Z,1008.4
2017-10-12T00:21:17.900Z,1008.47
2017-10-12T00:22:26.735Z,1008.38
2017-10-12T00:23:35.569Z,1008.35
2017-10-12T00:24:44.410Z,1008.38
2017-10-12T00:25:53.244Z,1008.37
2017-10-12T00:27:02.076Z,1008.38
2017-10-12T00:28:10.906Z,1008.45
2017-10-12T00:29:19.746Z,1008.37
2017-10-12T00:30:28.590Z,1008.39
2017-10-12T00:31:37.416Z,1008.33
2017-10-12T00:32:46.250Z,1008.41
2017-10-12T00:33:55.086Z,1008.37
2017-10-12T00:35:03.918Z,1008.41
2017-10-12T00:36:12.758Z,1008.39
2017-10-12T00:37:21.589Z,1008.37
2017-10-12T00:38:30.421Z,1008.37
2017-10-12T00:39:39.259Z,1008.32
2017-10-12T00:40:48.099Z,1008.34
2017-10-12T00:41:56.934Z,1008.31
2017-10-12T00:43:05.768Z,1008.25
2017-10-12T00:44:14.606Z,1008.23
2017-10-12T00:45:23.436Z,1008.3
2017-10-12T00:46:32.273Z,1008.3
2017-10-12T00:47:41.103Z,1008.2
2017-10-12T00:48:49.937Z,1008.21
2017-10-12T00:49:58.776Z,1008.22
2017-10-12T00:51:07.610Z,1008.18
2017-10-12T00:52:16.446Z,1008.13
2017-10-12T00:53:25.281Z,1008.13
2017-10-12T00:54:34.119Z,1008.11
2017-10-12T00:55:42.954Z,1008.11
2017-10-12T00:56:51.790Z,1008.12
2017-10-12T00:58:00.624Z,1008.13
2017-10-12T00:59:09.457Z,1008.13
2017-10-12T01:00:18.294Z,1008.14
2017-10-12T01:01:27.135Z,1008.1
2017-10-12T01:02:35.977Z,1008.03
2017-10-12T01:03:44.809Z,1008.04
2017-10-12T01:04:53.639Z,1008.01
2017-10-12T01:06:02.474Z,1007.95
2017-10-12T01:07:11.309Z,1007.99
2017-10-12T01:08:20.148Z,1007.96
2017-10-12T01:09:28.982Z,1007.97
2017-10-12T01:10:37.814Z,1007.97
2017-10-12T01:11:46.646Z,1007.96
2017-10-12T01:12:55.500Z,1007.95
2017-10-12T01:14:04.318Z,1008
2017-10-12T01:15:13.153Z,1007.89
2017-10-12T01:16:22.316Z,1007.78
2017-10-12T01:17:31.154Z,1007.77
2017-10-12T01:18:40.326Z,1007.84
2017-10-12T01:19:49.162Z,1007.9
2017-10-12T01:20:57.995Z,1007.87
2017-10-12T01:22:06.838Z,1007.87
2017-10-12T01:23:15.679Z,1007.78
2017-10-12T01:24:24.518Z,1007.81
2017-10-12T01:25:33.352Z,1007.72
2017-10-12T01:26:42.188Z,1007.76
2017-10-12T01:27:51.024Z,1007.72
2017-10-12T01:28:59.863Z,1007.72
2017-10-12T01:30:08.692Z,1007.76
2017-10-12T01:31:17.527Z,1007.73
2017-10-12T01:32:26.360Z,1007.7
2017-10-12T01:33:35.197Z,1007.72
2017-10-12T01:34:44.031Z,1007.67
2017-10-12T01:35:52.868Z,1007.74
2017-10-12T01:37:01.697Z,1007.71
2017-10-12T01:38:10.533Z,1007.75
2017-10-12T01:39:19.373Z,1007.73
2017-10-12T01:40:28.208Z,1007.73
2017-10-12T01:41:37.046Z,1007.65
2017-10-12T01:42:45.878Z,1007.69
2017-10-12T01:43:54.710Z,1007.68
2017-10-12T01:45:03.885Z,1007.66
2017-10-12T01:46:12.720Z,1007.62
2017-10-12T01:47:21.557Z,1007.54
2017-10-12T01:48:30.391Z,1007.55
2017-10-12T01:49:39.230Z,1007.52
2017-10-12T01:50:48.399Z,1007.48
2017-10-12T01:51:57.233Z,1007.42
2017-10-12T01:53:06.069Z,1007.42
2017-10-12T01:54:14.904Z,1007.35
2017-10-12T01:55:23.739Z,1007.36
2017-10-12T01:56:32.581Z,1007.41
2017-10-12T01:57:41.752Z,1007.34
2017-10-12T01:58:50.588Z,1007.33
2017-10-12T01:59:59.418Z,1007.34
2017-10-12T02:01:08.253Z,1007.3
2017-10-12T02:02:17.090Z,1007.32
2017-10-12T02:03:25.928Z,1007.29
2017-10-12T02:04:34.765Z,1007.27
2017-10-12T02:05:43.596Z,1007.22
2017-10-12T02:06:52.429Z,1007.24
2017-10-12T02:08:01.266Z,1007.22
2017-10-12T02:09:10.101Z,1007.23
2017-10-12T02:10:18.939Z,1007.21
2017-10-12T02:11:27.774Z,1007.25
2017-10-12T02:12:36.948Z,1007.27
2017-10-12T02:13:45.790Z,1007.28
2017-10-12T02:14:54.623Z,1007.26
2017-10-12T02:16:03.789Z,1007.25
2017-10-12T02:17:12.628Z,1007.21
2017-10-12T02:18:21.455Z,1007.23
2017-10-12T02:19:30.292Z,1007.26
2017-10-12T02:20:39.127Z,1007.25
2017-10-12T02:21:47.965Z,1007.32
2017-10-12T02:22:57.130Z,1007.3
2017-10-12T02:24:05.966Z,1007.23
2017-10-12T02:25:15.133Z,1007.24
2017-10-12T02:26:23.965Z,1007.21
2017-10-12T02:27:32.804Z,1007.26
2017-10-12T02:28:41.638Z,1007.21
2017-10-12T02:29:50.473Z,1007.18
2017-10-12T02:30:59.305Z,1007.22
2017-10-12T02:32:08.135Z,1007.18
2017-10-12T02:33:16.974Z,1007.11
2017-10-12T02:34:26.138Z,1007.08
2017-10-12T02:35:34.978Z,1007.08
2017-10-12T02:36:43.806Z,1007.11
2017-10-12T02:37:52.645Z,1007.16
2017-10-12T02:39:01.475Z,1007.11
2017-10-12T02:40:10.316Z,1007.15
2017-10-12T02:41:19.153Z,1007.11
2017-10-12T02:42:27.989Z,1007.16
2017-10-12T02:43:36.821Z,1007.09
2017-10-12T02:44:45.655Z,1007.13
2017-10-12T02:45:54.493Z,1007.16
2017-10-12T02:47:03.659Z,1007.13
2017-10-12T02:48:12.491Z,1007.12
2017-10-12T02:49:21.326Z,1007.08
2017-10-12T02:50:30.160Z,1007.05
2017-10-12T02:51:38.994Z,1006.98
2017-10-12T02:52:47.829Z,1007
2017-10-12T02:53:56.662Z,1007.01
2017-10-12T02:55:05.829Z,1006.92
2017-10-12T02:56:14.669Z,1006.91
2017-10-12T02:57:23.500Z,1006.92
2017-10-12T02:58:32.334Z,1006.96
2017-10-12T02:59:41.167Z,1006.89
2017-10-12T03:00:50.000Z,1006.88
2017-10-12T03:01:58.839Z,1006.87
2017-10-12T03:03:07.677Z,1006.9
2017-10-12T03:04:16.513Z,1006.87
2017-10-12T03:05:25.342Z,1006.79
2017-10-12T03:06:34.180Z,1006.8
2017-10-12T03:07:43.012Z,1006.86
2017-10-12T03:08:51.847Z,1006.8
2017-10-12T03:10:00.688Z,1006.84
2017-10-12T03:11:09.520Z,1006.85
2017-10-12T03:12:18.352Z,1006.85
2017-10-12T03:13:27.187Z,1006.89
2017-10-12T03:14:36.019Z,1006.93
2017-10-12T03:15:44.853Z,1006.87
2017-10-12T03:16:53.684Z,1006.84
2017-10-12T03:18:02.519Z,1006.8
2017-10-12T03:19:11.349Z,1006.77
2017-10-12T03:20:20.188Z,1006.81
2017-10-12T03:21:29.022Z,1006.77
2017-10-12T03:22:37.859Z,1006.75
2017-10-12T03:23:46.692Z,1006.71
2017-10-12T03:24:55.530Z,1006.7
2017-10-12T03:26:04.699Z,1006.7
2017-10-12T03:27:13.868Z,1006.68
2017-10-12T03:28:22.709Z,1006.6
2017-10-12T03:29:31.873Z,1006.58
2017-10-12T03:30:40.710Z,1006.54
2017-10-12T03:31:49.919Z,1006.57
2017-10-12T03:32:58.753Z,1006.69
2017-10-12T03:34:07.585Z,1006.69
2017-10-12T03:35:16.425Z,1006.65
2017-10-12T03:36:25.262Z,1006.68
2017-10-12T03:37:34.100Z,1006.66
2017-10-12T03:38:42.932Z,1006.67
2017-10-12T03:39:51.761Z,1006.7
2017-10-12T03:41:00.601Z,1006.67
2017-10-12T03:42:09.436Z,1006.65
2017-10-12T03:43:18.272Z,1006.66
2017-10-12T03:44:27.105Z,1006.67
2017-10-12T03:45:35.938Z,1006.65
2017-10-12T03:46:44.777Z,1006.66
2017-10-12T03:47:53.948Z,1006.69
2017-10-12T03:49:02.778Z,1006.69
2017-10-12T03:50:11.612Z,1006.64
2017-10-12T03:51:20.447Z,1006.66
2017-10-12T03:52:29.285Z,1006.7
2017-10-12T03:53:38.125Z,1006.72
2017-10-12T03:54:46.951Z,1006.7
2017-10-12T03:55:55.784Z,1006.68
2017-10-12T03:57:04.632Z,1006.65
2017-10-12T03:58:13.468Z,1006.62
2017-10-12T03:59:22.305Z,1006.68
2017-10-12T04:00:31.140Z,1006.63
2017-10-12T04:01:40.305Z,1006.64
2017-10-12T04:02:49.137Z,1006.6
2017-10-12T04:03:57.973Z,1006.58
2017-10-12T04:05:06.812Z,1006.57
2017-10-12T04:06:15.648Z,1006.61
2017-10-12T04:07:24.481Z,1006.59
2017-10-12T04:08:33.311Z,1006.61
2017-10-12T04:09:42.149Z,1006.59
2017-10-12T04:10:51.321Z,1006.57
2017-10-12T04:12:00.155Z,1006.61
2017-10-12T04:13:08.991Z,1006.59
2017-10-12T04:14:17.824Z,1006.62
2017-10-12T04:15:26.661Z,1006.57
2017-10-12T04:16:35.498Z,1006.5
2017-10-12T04:17:44.337Z,1006.52
2017-10-12T04:18:53.172Z,1006.51
2017-10-12T04:20:01.999Z,1006.58
2017-10-12T04:21:10.839Z,1006.53
2017-10-12T04:22:19.675Z,1006.58
2017-10-12T04:23:28.509Z,1006.53
2017-10-12T04:24:37.345Z,1006.52
2017-10-12T04:25:46.174Z,1006.59
2017-10-12T04:26:55.347Z,1006.61
2017-10-12T04:28:04.181Z,1006.65
2017-10-12T04:29:13.019Z,1006.62
2017-10-12T04:30:21.860Z,1006.6
2017-10-12T04:31:31.032Z,1006.61
2017-10-12T04:32:39.867Z,1006.57
2017-10-12T04:33:48.698Z,1006.57
2017-10-12T04:34:57.537Z,1006.61
2017-10-12T04:36:06.369Z,1006.64
2017-10-12T04:37:15.206Z,1006.61
2017-10-12T04:38:24.046Z,1006.67
2017-10-12T04:39:32.868Z,1006.61
2017-10-12T04:40:41.705Z,1006.61
2017-10-12T04:41:50.546Z,1006.58
2017-10-12T04:42:59.382Z,1006.58
2017-10-12T04:44:08.218Z,1006.67
2017-10-12T04:45:17.049Z,1006.62
2017-10-12T04:46:25.884Z,1006.58
2017-10-12T04:47:34.718Z,1006.51
2017-10-12T04:48:43.555Z,1006.45
2017-10-12T04:49:52.390Z,1006.47
2017-10-12T04:51:01.227Z,1006.51
2017-10-12T04:52:10.063Z,1006.48
2017-10-12T04:53:18.896Z,1006.43
2017-10-12T04:54:27.735Z,1006.47
2017-10-12T04:55:36.569Z,1006.48
2017-10-12T04:56:45.401Z,1006.5
2017-10-12T04:57:54.238Z,1006.48
2017-10-12T04:59:03.073Z,1006.41
2017-10-12T05:00:11.909Z,1006.47
2017-10-12T05:01:20.749Z,1006.44
2017-10-12T05:02:29.920Z,1006.46
2017-10-12T05:03:38.752Z,1006.41
2017-10-12T05:04:47.589Z,1006.45
2017-10-12T05:05:56.424Z,1006.42
2017-10-12T05:07:05.255Z,1006.35
2017-10-12T05:08:14.095Z,1006.39
2017-10-12T05:09:22.927Z,1006.48
2017-10-12T05:10:31.763Z,1006.41
2017-10-12T05:11:40.601Z,1006.45
2017-10-12T05:12:49.772Z,1006.43
2017-10-12T05:13:58.605Z,1006.46
2017-10-12T05:15:07.439Z,1006.4
2017-10-12T05:16:16.278Z,1006.45
2017-10-12T05:17:25.113Z,1006.43
2017-10-12T05:18:33.950Z,1006.39
2017-10-12T05:19:42.782Z,1006.37
2017-10-12T05:20:51.617Z,1006.38
2017-10-12T05:22:00.469Z,1006.3
2017-10-12T05:23:09.289Z,1006.32
2017-10-12T05:24:18.123Z,1006.34
2017-10-12T05:25:26.962Z,1006.28
2017-10-12T05:26:35.796Z,1006.36
2017-10-12T05:27:44.631Z,1006.32
2017-10-12T05:28:53.461Z,1006.33
2017-10-12T05:30:02.301Z,1006.3
2017-10-12T05:31:11.133Z,1006.3
2017-10-12T05:32:19.966Z,1006.35
2017-10-12T05:33:28.806Z,1006.37
2017-10-12T05:34:37.640Z,1006.38
2017-10-12T05:35:46.473Z,1006.44
2017-10-12T05:36:55.310Z,1006.46
2017-10-12T05:38:04.147Z,1006.5
2017-10-12T05:39:12.980Z,1006.52
2017-10-12T05:40:21.812Z,1006.46
2017-10-12T05:41:30.644Z,1006.5
2017-10-12T05:42:39.480Z,1006.52
2017-10-12T05:43:48.317Z,1006.53
2017-10-12T05:44:57.149Z,1006.58
2017-10-12T05:46:05.984Z,1006.64
2017-10-12T05:47:14.819Z,1006.68
2017-10-12T05:48:23.653Z,1006.62
2017-10-12T05:49:32.490Z,1006.61
2017-10-12T05:50:41.331Z,1006.63
2017-10-12T05:51:50.165Z,1006.61
2017-10-12T05:52:58.997Z,1006.61
2017-10-12T05:54:07.840Z,1006.59
2017-10-12T05:55:16.677Z,1006.63
2017-10-12T05:56:25.509Z,1006.62
2017-10-12T05:57:34.348Z,1006.64
2017-10-12T05:58:43.177Z,1006.64
2017-10-12T05:59:52.015Z,1006.72
2017-10-12T06:01:00.855Z,1006.67
2017-10-12T06:02:09.701Z,1006.65
2017-10-12T06:03:18.530Z,1006.67
2017-10-12T06:04:27.364Z,1006.66
2017-10-12T06:05:36.197Z,1006.69
2017-10-12T06:06:45.029Z,1006.74
2017-10-12T06:07:53.872Z,1006.79
2017-10-12T06:09:02.707Z,1006.79
2017-10-12T06:10:11.533Z,1006.78
2017-10-12T06:11:20.379Z,1006.86
2017-10-12T06:12:29.212Z,1006.81
2017-10-12T06:13:38.051Z,1006.78
2017-10-12T06:14:46.885Z,1006.85
2017-10-12T06:15:55.721Z,1006.82
2017-10-12T06:17:04.554Z,1006.83
2017-10-12T06:18:13.397Z,1006.86
2017-10-12T06:19:22.225Z,1006.88
2017-10-12T06:20:31.061Z,1006.86
2017-10-12T06:21:39.896Z,1006.93
2017-10-12T06:22:48.730Z,1006.98
2017-10-12T06:23:57.568Z,1006.92
2017-10-12T06:25:06.406Z,1006.89
2017-10-12T06:26:15.236Z,1006.89
2017-10-12T06:27:24.073Z,1006.81
2017-10-12T06:28:32.903Z,1006.88
2017-10-12T06:29:41.736Z,1006.97
2017-10-12T06:30:50.573Z,1007.09
2017-10-12T06:31:59.412Z,1007.06
2017-10-12T06:33:08.245Z,1007.1
2017-10-12T06:34:17.079Z,1007.09
2017-10-12T06:35:25.913Z,1007.06
2017-10-12T06:36:34.748Z,1007.1
2017-10-12T06:37:43.584Z,1007.06
2017-10-12T06:38:52.422Z,1007.08
2017-10-12T06:40:01.257Z,1007.09
2017-10-12T06:41:10.101Z,1007.06
2017-10-12T06:42:18.940Z,1007.01
2017-10-12T06:43:27.769Z,1007.01
2017-10-12T06:44:36.613Z,1006.96
2017-10-12T06:45:45.446Z,1007.07
2017-10-12T06:46:54.280Z,1007.08
2017-10-12T06:48:03.113Z,1007.02
2017-10-12T06:49:12.290Z,1007.09
2017-10-12T06:50:21.486Z,1007.1
2017-10-12T06:51:30.323Z,1007.12
2017-10-12T06:52:39.159Z,1007.13
2017-10-12T06:53:47.993Z,1007.1
2017-10-12T06:54:56.829Z,1007.18
2017-10-12T06:56:05.661Z,1007.07
2017-10-12T06:57:14.491Z,1007.11
2017-10-12T06:58:23.331Z,1007.15
2017-10-12T06:59:32.497Z,1007.2
2017-10-12T07:00:41.335Z,1007.11
2017-10-12T07:01:50.172Z,1007.15
2017-10-12T07:02:59.009Z,1007.17
2017-10-12T07:04:07.841Z,1007.18
2017-10-12T07:05:16.677Z,1007.24
2017-10-12T07:06:25.515Z,1007.21
2017-10-12T07:07:34.355Z,1007.22
2017-10-12T07:08:43.184Z,1007.33
2017-10-12T07:09:52.019Z,1007.29
2017-10-12T07:11:00.853Z,1007.3
2017-10-12T07:12:09.705Z,1007.41
2017-10-12T07:13:18.556Z,1007.46
2017-10-12T07:14:27.366Z,1007.44
2017-10-12T07:15:36.194Z,1007.42
2017-10-12T07:16:45.030Z,1007.43
2017-10-12T07:17:53.860Z,1007.49
2017-10-12T07:19:02.695Z,1007.51
2017-10-12T07:20:11.540Z,1007.53
2017-10-12T07:21:20.369Z,1007.62
2017-10-12T07:22:29.546Z,1007.54
2017-10-12T07:23:38.384Z,1007.59
2017-10-12T07:24:47.217Z,1007.6
2017-10-12T07:25:56.052Z,1007.57
2017-10-12T07:27:04.889Z,1007.57
2017-10-12T07:28:13.725Z,1007.56
2017-10-12T07:29:22.555Z,1007.54
2017-10-12T07:30:31.387Z,1007.65
2017-10-12T07:31:40.224Z,1007.61
2017-10-12T07:32:49.062Z,1007.55
2017-10-12T07:33:57.908Z,1007.58
2017-10-12T07:35:06.742Z,1007.64
2017-10-12T07:36:15.575Z,1007.62
2017-10-12T07:37:24.415Z,1007.58
2017-10-12T07:38:33.250Z,1007.64
2017-10-12T07:39:42.084Z,1007.67
2017-10-12T07:40:50.923Z,1007.7
2017-10-12T07:41:59.756Z,1007.72
2017-10-12T07:43:09.590Z,1007.77
2017-10-12T07:44:18.430Z,1007.74
2017-10-12T07:45:27.275Z,1007.81
2017-10-12T07:46:36.100Z,1007.8
2017-10-12T07:47:44.935Z,1007.86
2017-10-12T07:48:53.767Z,1007.93
2017-10-12T07:50:02.603Z,1007.96
2017-10-12T07:51:11.446Z,1008
2017-10-12T07:52:20.282Z,1007.91
2017-10-12T07:53:29.115Z,1008.06
2017-10-12T07:54:38.325Z,1008.03
2017-10-12T07:55:47.160Z,1008.02
2017-10-12T07:56:55.997Z,1008.1
2017-10-12T07:58:04.837Z,1008.02
2017-10-12T07:59:13.670Z,1008.02
2017-10-12T08:00:22.501Z,1008.14
2017-10-12T08:01:31.341Z,1008.09
2017-10-12T08:02:40.175Z,1007.97
2017-10-12T08:03:49.014Z,1007.96
2017-10-12T08:04:57.847Z,1008.04
2017-10-12T08:06:06.680Z,1007.84
2017-10-12T08:07:15.514Z,1008.1
2017-10-12T08:08:24.357Z,1008.12
2017-10-12T08:09:33.184Z,1008.12
2017-10-12T08:10:42.019Z,1008.06
2017-10-12T08:11:50.857Z,1008.11
2017-10-12T08:13:00.030Z,1008.15
2017-10-12T08:14:08.878Z,1008.15
2017-10-12T08:15:17.703Z,1008.1
2017-10-12T08:16:26.541Z,1008.18
2017-10-12T08:17:35.370Z,1008.14
2017-10-12T08:18:44.208Z,1008.15
2017-10-12T08:19:53.375Z,1008.14
2017-10-12T08:21:02.213Z,1008.16
2017-10-12T08:22:11.052Z,1008.16
2017-10-12T08:23:19.887Z,1008.05
2017-10-12T08:24:28.722Z,1008.11
2017-10-12T08:25:37.551Z,1008.2
2017-10-12T08:26:46.388Z,1008.17
2017-10-12T08:27:55.225Z,1008.21
2017-10-12T08:29:04.065Z,1008.2
2017-10-12T08:30:12.900Z,1008.22
2017-10-12T08:31:21.739Z,1008.11
2017-10-12T08:32:30.567Z,1008.19
2017-10-12T08:33:39.408Z,1008.09
2017-10-12T08:34:48.239Z,1007.97
2017-10-12T08:35:57.073Z,1008.12
2017-10-12T08:37:05.906Z,1008.1
2017-10-12T08:38:14.739Z,1008.05
2017-10-12T08:39:23.578Z,1008.12
2017-10-12T08:40:32.418Z,1008.05
2017-10-12T08:41:41.584Z,1008.1
2017-10-12T08:42:50.427Z,1008.04
2017-10-12T08:43:59.256Z,1008.14
2017-10-12T08:45:08.094Z,1008.01
2017-10-12T08:46:16.927Z,1008.08
2017-10-12T08:47:25.769Z,1008.09
2017-10-12T08:48:34.606Z,1008.18
2017-10-12T08:49:43.443Z,1008.16
2017-10-12T08:50:52.283Z,1008.12
2017-10-12T08:52:01.121Z,1008.18
2017-10-12T08:53:09.956Z,1008.21
2017-10-12T08:54:18.789Z,1008.24
2017-10-12T08:55:27.622Z,1008.19
2017-10-12T08:56:36.464Z,1008.16
2017-10-12T08:57:45.297Z,1008.07
2017-10-12T08:58:54.134Z,1008.23
2017-10-12T09:00:02.969Z,1008.19
2017-10-12T09:01:12.141Z,1008.2
2017-10-12T09:02:20.975Z,1008.16
2017-10-12T09:03:29.810Z,1008.28
2017-10-12T09:04:38.646Z,1008.27
2017-10-12T09:05:47.479Z,1008.29
2017-10-12T09:06:56.314Z,1008.18
2017-10-12T09:08:05.147Z,1008.28
2017-10-12T09:09:13.989Z,1008.27
2017-10-12T09:10:22.831Z,1008.39
2017-10-12T09:11:31.663Z,1008.31
2017-10-12T09:12:40.503Z,1008.38
2017-10-12T09:13:49.338Z,1008.35
2017-10-12T09:14:58.174Z,1008.4
2017-10-12T09:16:07.010Z,1008.38
2017-10-12T09:17:15.851Z,1008.39
2017-10-12T09:18:24.689Z,1008.46
2017-10-12T09:19:33.521Z,1008.45
2017-10-12T09:20:42.357Z,1008.56
2017-10-12T09:21:51.206Z,1008.47
2017-10-12T09:23:00.035Z,1008.52
2017-10-12T09:24:08.885Z,1008.52
2017-10-12T09:25:17.717Z,1008.57
2017-10-12T09:26:26.559Z,1008.66
2017-10-12T09:27:35.397Z,1008.55
2017-10-12T09:28:44.237Z,1008.65
2017-10-12T09:29:53.073Z,1008.65
2017-10-12T09:31:01.910Z,1008.67
2017-10-12T09:32:10.742Z,1008.68
2017-10-12T09:33:19.575Z,1008.61
2017-10-12T09:34:28.418Z,1008.64
2017-10-12T09:35:37.258Z,1008.6
2017-10-12T09:36:46.092Z,1008.67
2017-10-12T09:37:54.927Z,1008.7
2017-10-12T09:39:03.761Z,1008.76
2017-10-12T09:40:12.600Z,1008.83
2017-10-12T09:41:21.439Z,1008.69
2017-10-12T09:42:30.281Z,1008.71
2017-10-12T09:43:39.112Z,1008.76
2017-10-12T09:44:47.953Z,1008.65
2017-10-12T09:45:56.787Z,1008.85
2017-10-12T09:47:05.625Z,1008.71
2017-10-12T09:48:14.798Z,1008.78
2017-10-12T09:49:23.639Z,1008.84
2017-10-12T09:50:32.471Z,1008.79
2017-10-12T09:51:41.310Z,1008.85
2017-10-12T09:52:50.151Z,1008.88
2017-10-12T09:53:59.322Z,1008.77
2017-10-12T09:55:08.156Z,1008.9
2017-10-12T09:56:16.997Z,1008.92
2017-10-12T09:57:25.830Z,1008.85
2017-10-12T09:58:34.672Z,1008.93
2017-10-12T09:59:43.502Z,1008.98
2017-10-12T10:00:52.341Z,1009.05
2017-10-12T10:02:01.177Z,1008.94
2017-10-12T10:03:10.014Z,1008.95
2017-10-12T10:04:18.852Z,1009.08
2017-10-12T10:05:28.022Z,1009.02
2017-10-12T10:06:36.862Z,1009.14
2017-10-12T10:07:45.695Z,1009.07
2017-10-12T10:08:54.532Z,1009.13
2017-10-12T10:10:03.371Z,1009.13
2017-10-12T10:11:12.204Z,1009.13
2017-10-12T10:12:21.038Z,1009.23
2017-10-12T10:13:29.872Z,1009.28
2017-10-12T10:14:38.709Z,1009.24
2017-10-12T10:15:47.549Z,1009.24
2017-10-12T10:16:56.386Z,1009.34
2017-10-12T10:18:05.223Z,1009.32
2017-10-12T10:19:14.392Z,1009.31
2017-10-12T10:20:23.230Z,1009.3
2017-10-12T10:21:32.069Z,1009.31
2017-10-12T10:22:40.904Z,1009.31
2017-10-12T10:23:49.741Z,1009.36
2017-10-12T10:24:58.577Z,1009.46
2017-10-12T10:26:07.412Z,1009.42
2017-10-12T10:27:16.247Z,1009.38
2017-10-12T10:28:25.085Z,1009.36
2017-10-12T10:29:33.921Z,1009.56
2017-10-12T10:30:42.758Z,1009.27
2017-10-12T10:31:51.596Z,1009.37
2017-10-12T10:33:00.433Z,1009.36
2017-10-12T10:34:09.269Z,1009.49
2017-10-12T10:35:18.107Z,1009.5
2017-10-12T10:36:26.941Z,1009.48
2017-10-12T10:37:35.783Z,1009.56
2017-10-12T10:38:44.616Z,1009.58
2017-10-12T10:39:53.450Z,1009.51
2017-10-12T10:41:02.288Z,1009.59
2017-10-12T10:42:11.126Z,1009.54
2017-10-12T10:43:19.956Z,1009.57
2017-10-12T10:44:28.795Z,1009.56
2017-10-12T10:45:37.631Z,1009.7
2017-10-12T10:46:46.463Z,1009.66
2017-10-12T10:47:55.307Z,1009.62
2017-10-12T10:49:04.150Z,1009.78
2017-10-12T10:50:13.318Z,1009.74
2017-10-12T10:51:22.154Z,1009.97
2017-10-12T10:52:30.991Z,1009.66
2017-10-12T10:53:40.167Z,1009.78
2017-10-12T10:54:49.004Z,1009.81
2017-10-12T10:55:57.847Z,1009.88
2017-10-12T10:57:06.683Z,1009.67
2017-10-12T10:58:15.521Z,1009.9
2017-10-12T10:59:24.354Z,1009.97
2017-10-12T11:00:33.193Z,1009.93
2017-10-12T11:01:42.040Z,1009.96
2017-10-12T11:02:50.867Z,1010.13
2017-10-12T11:04:00.039Z,1009.94
2017-10-12T11:05:08.889Z,1009.99
2017-10-12T11:06:17.726Z,1009.77
2017-10-12T11:07:26.890Z,1009.97
2017-10-12T11:08:35.726Z,1010.06
2017-10-12T11:09:44.563Z,1009.91
2017-10-12T11:10:53.400Z,1010.02
2017-10-12T11:12:02.235Z,1010.18
2017-10-12T11:13:11.069Z,1010.22
2017-10-12T11:14:19.907Z,1010.08
2017-10-12T11:15:28.740Z,1010.16
2017-10-12T11:16:37.579Z,1010.15
2017-10-12T11:17:46.413Z,1010.23
2017-10-12T11:18:55.249Z,1010.19
2017-10-12T11:20:04.088Z,1010.27
2017-10-12T11:21:12.925Z,1010.18
2017-10-12T11:22:21.769Z,1010.2
2017-10-12T11:23:30.602Z,1010.19
2017-10-12T11:24:39.444Z,1010.18
2017-10-12T11:25:48.273Z,1010.16
2017-10-12T11:26:57.112Z,1010.18
2017-10-12T11:28:05.947Z,1010.17
2017-10-12T11:29:14.788Z,1010.4
2017-10-12T11:30:23.630Z,1010.26
2017-10-12T11:31:32.458Z,1010.2
2017-10-12T11:32:41.299Z,1010.32
2017-10-12T11:33:50.138Z,1010.29
2017-10-12T11:34:59.323Z,1010.28
2017-10-12T11:36:08.156Z,1010.41
2017-10-12T11:37:16.995Z,1010.35
2017-10-12T11:38:25.829Z,1010.38
2017-10-12T11:39:34.666Z,1010.39
2017-10-12T11:40:43.506Z,1010.38
2017-10-12T11:41:52.337Z,1010.44
2017-10-12T11:43:01.177Z,1010.35
2017-10-12T11:44:10.015Z,1010.36
2017-10-12T11:45:19.186Z,1010.34
2017-10-12T11:46:28.355Z,1010.39
2017-10-12T11:47:37.191Z,1010.36
2017-10-12T11:48:46.031Z,1010.23
2017-10-12T11:49:54.867Z,1010.27
2017-10-12T11:51:04.053Z,1010.27
2017-10-12T11:52:13.213Z,1010.43
2017-10-12T11:53:22.050Z,1010.35
2017-10-12T11:54:31.223Z,1010.21
2017-10-12T11:55:40.063Z,1010.35
2017-10-12T11:56:48.898Z,1010.42
2017-10-12T11:57:57.734Z,1010.39
2017-10-12T11:59:06.572Z,1010.34
2017-10-12T12:00:15.404Z,1010.29
2017-10-12T12:01:24.246Z,1010.59
2017-10-12T12:02:33.087Z,1010.6
2017-10-12T12:03:41.922Z,1010.57
2017-10-12T12:04:50.761Z,1010.57
2017-10-12T12:05:59.592Z,1010.58
2017-10-12T12:07:08.429Z,1010.64
2017-10-12T12:08:17.605Z,1010.73
2017-10-12T12:09:26.445Z,1010.92
2017-10-12T12:10:35.282Z,1010.63
2017-10-12T12:11:44.118Z,1010.67
2017-10-12T12:12:52.959Z,1010.6
2017-10-12T12:14:01.791Z,1010.71
2017-10-12T12:15:10.631Z,1010.67
2017-10-12T12:16:19.824Z,1010.71
2017-10-12T12:17:28.662Z,1010.67
2017-10-12T12:18:37.497Z,1010.71
2017-10-12T12:19:46.339Z,1010.71
2017-10-12T12:20:55.179Z,1010.78
2017-10-12T12:22:04.014Z,1010.83
2017-10-12T12:23:12.869Z,1010.8
2017-10-12T12:24:21.684Z,1010.76
2017-10-12T12:25:30.523Z,1010.85
2017-10-12T12:26:39.363Z,1010.9
2017-10-12T12:27:48.199Z,1010.8
2017-10-12T12:28:57.038Z,1010.85
2017-10-12T12:30:05.877Z,1010.95
2017-10-12T12:31:14.713Z,1010.9
2017-10-12T12:32:23.552Z,1010.96
2017-10-12T12:33:32.387Z,1010.82
2017-10-12T12:34:41.224Z,1010.83
2017-10-12T12:35:50.068Z,1010.93
2017-10-12T12:36:58.897Z,1010.92
2017-10-12T12:38:07.737Z,1010.98
2017-10-12T12:39:16.575Z,1011.05
2017-10-12T12:40:25.413Z,1010.96
2017-10-12T12:41:34.249Z,1011.03
2017-10-12T12:42:43.091Z,1011.05
2017-10-12T12:43:51.924Z,1011.15
2017-10-12T12:45:00.761Z,1011.07
2017-10-12T12:46:09.601Z,1011.13
2017-10-12T12:47:18.436Z,1011.12
2017-10-12T12:48:27.279Z,1011.07
2017-10-12T12:49:36.109Z,1011.14
2017-10-12T12:50:44.950Z,1011.24
2017-10-12T12:51:53.784Z,1011.12
2017-10-12T12:53:02.631Z,1011.16
2017-10-12T12:54:11.466Z,1011.28
2017-10-12T12:55:20.644Z,1011.28
2017-10-12T12:56:29.478Z,1011.32
2017-10-12T12:57:38.314Z,1011.25
2017-10-12T12:58:47.151Z,1011.43
2017-10-12T12:59:55.990Z,1011.45
2017-10-12T13:01:04.825Z,1011.59
2017-10-12T13:02:14.002Z,1011.33
2017-10-12T13:03:22.835Z,1011.33
2017-10-12T13:04:31.672Z,1011.41
2017-10-12T13:05:40.509Z,1011.29
2017-10-12T13:06:49.349Z,1011.45
2017-10-12T13:07:58.204Z,1011.43
2017-10-12T13:09:07.043Z,1011.4
2017-10-12T13:10:15.880Z,1011.46
2017-10-12T13:11:24.723Z,1011.5
2017-10-12T13:12:33.557Z,1011.6
2017-10-12T13:13:42.397Z,1011.47
2017-10-12T13:14:51.225Z,1011.59
2017-10-12T13:16:00.058Z,1011.58
2017-10-12T13:17:08.898Z,1011.55
2017-10-12T13:18:17.733Z,1011.62
2017-10-12T13:19:26.576Z,1011.61
2017-10-12T13:20:35.411Z,1011.73
2017-10-12T13:21:44.248Z,1011.7
2017-10-12T13:22:53.080Z,1011.71
2017-10-12T13:24:01.922Z,1011.75
2017-10-12T13:25:10.756Z,1011.71
2017-10-12T13:26:19.598Z,1011.82
2017-10-12T13:27:28.439Z,1011.72
2017-10-12T13:28:37.273Z,1011.87
2017-10-12T13:29:46.110Z,1011.79
2017-10-12T13:30:54.952Z,1011.87
2017-10-12T13:32:03.783Z,1011.92
2017-10-12T13:33:12.620Z,1011.92
2017-10-12T13:34:21.460Z,1011.92
2017-10-12T13:35:30.297Z,1011.94
2017-10-12T13:36:39.130Z,1011.93
2017-10-12T13:37:47.971Z,1011.89
2017-10-12T13:38:56.803Z,1011.99
2017-10-12T13:40:05.648Z,1012.06
2017-10-12T13:41:14.479Z,1012.1
2017-10-12T13:42:23.313Z,1012.12
2017-10-12T13:43:32.148Z,1012.04
2017-10-12T13:44:40.981Z,1012.1
2017-10-12T13:45:49.822Z,1012.09
2017-10-12T13:46:58.658Z,1012.08
2017-10-12T13:48:07.492Z,1012.1
2017-10-12T13:49:16.667Z,1012.24
2017-10-12T13:50:25.507Z,1012.17
2017-10-12T13:51:34.342Z,1012.19
2017-10-12T13:52:43.179Z,1012.25
2017-10-12T13:53:52.012Z,1012.13
2017-10-12T13:55:00.855Z,1012.21
2017-10-12T13:56:10.027Z,1012.28